createdAt,value
2019-03-24T00:01:45.407Z,40.73
2019-03-24T00:03:49.242Z,36.75
2019-03-24T00:05:53.420Z,34.88
2019-03-24T00:07:57.641Z,33.90
2019-03-24T00:10:01.477Z,38.65
2019-03-24T00:12:06.066Z,37.53
2019-03-24T00:14:10.255Z,34.27
2019-03-24T00:16:14.485Z,32.28
2019-03-24T00:18:18.590Z,39.58
2019-03-24T00:20:22.799Z,37.88
2019-03-24T00:22:27.016Z,36.08
2019-03-24T00:24:31.128Z,37.25
2019-03-24T00:26:36.330Z,33.88
2019-03-24T00:28:40.466Z,37.83
2019-03-24T00:30:46.227Z,37.55
2019-03-24T00:32:50.436Z,34.23
2019-03-24T00:34:54.546Z,34.75
2019-03-24T00:36:58.370Z,37.73
2019-03-24T00:39:02.553Z,35.58
2019-03-24T00:41:06.667Z,33.88
2019-03-24T00:43:10.783Z,36.35
2019-03-24T00:45:14.987Z,35.35
2019-03-24T00:47:19.200Z,35.73
2019-03-24T00:49:23.308Z,36.45
2019-03-24T00:51:27.418Z,37.28
2019-03-24T00:53:31.534Z,37.13
2019-03-24T00:55:35.397Z,36.98
2019-03-24T00:57:42.270Z,34.13
2019-03-24T00:59:48.384Z,33.40
2019-03-24T01:01:52.581Z,33.42
2019-03-24T01:03:56.686Z,32.60
2019-03-24T01:06:01.858Z,33.20
2019-03-24T01:08:06.384Z,32.20
2019-03-24T01:10:11.074Z,36.20
2019-03-24T01:12:15.192Z,36.25
2019-03-24T01:14:19.026Z,35.60
2019-03-24T01:16:23.199Z,35.33
2019-03-24T01:18:27.426Z,32.60
2019-03-24T01:20:31.628Z,33.90
2019-03-24T01:22:36.042Z,35.45
2019-03-24T01:24:39.902Z,34.50
2019-03-24T01:26:43.732Z,41.33
2019-03-24T01:28:47.868Z,38.55
2019-03-24T01:30:51.764Z,35.48
2019-03-24T01:32:55.551Z,35.13
2019-03-24T01:34:59.681Z,36.70
2019-03-24T01:37:03.798Z,34.58
2019-03-24T01:39:10.338Z,37.20
2019-03-24T01:41:14.178Z,37.70
2019-03-24T01:43:18.362Z,34.20
2019-03-24T01:45:22.579Z,37.15
2019-03-24T01:47:27.224Z,37.23
2019-03-24T01:49:33.912Z,34.45
2019-03-24T01:51:37.634Z,36.00
2019-03-24T01:53:41.776Z,37.60
2019-03-24T01:55:45.602Z,39.85
2019-03-24T01:57:49.811Z,38.65
2019-03-24T01:59:53.626Z,34.53
2019-03-24T02:01:57.452Z,36.80
2019-03-24T02:04:01.618Z,36.68
2019-03-24T02:06:05.734Z,38.23
2019-03-24T02:08:09.554Z,38.95
2019-03-24T02:10:14.352Z,37.80
2019-03-24T02:12:18.472Z,38.90
2019-03-24T02:14:22.690Z,38.50
2019-03-24T02:16:26.900Z,38.50
2019-03-24T02:18:31.038Z,36.00
2019-03-24T02:20:35.225Z,36.75
2019-03-24T02:22:39.326Z,37.93
2019-03-24T02:24:43.462Z,33.75
2019-03-24T02:26:47.649Z,33.85
2019-03-24T02:28:51.463Z,35.38
2019-03-24T02:30:57.300Z,32.40
2019-03-24T02:33:02.554Z,34.30
2019-03-24T02:35:07.799Z,34.30
2019-03-24T02:37:12.005Z,34.48
2019-03-24T02:39:17.630Z,34.58
2019-03-24T02:41:21.491Z,37.15
2019-03-24T02:43:25.662Z,35.38
2019-03-24T02:45:29.874Z,35.63
2019-03-24T02:47:34.081Z,37.38
2019-03-24T02:49:38.195Z,36.33
2019-03-24T02:51:42.401Z,39.98
2019-03-24T02:53:46.522Z,41.58
2019-03-24T02:55:50.392Z,40.67
2019-03-24T02:57:54.242Z,38.80
2019-03-24T02:59:58.628Z,38.13
2019-03-24T03:02:06.028Z,36.15
2019-03-24T03:04:10.140Z,37.93
2019-03-24T03:06:14.002Z,44.63
2019-03-24T03:08:18.178Z,39.58
2019-03-24T03:10:22.366Z,42.43
2019-03-24T03:12:26.486Z,37.48
2019-03-24T03:14:30.361Z,39.50
2019-03-24T03:16:38.628Z,41.90
2019-03-24T03:18:40.063Z,39.75
2019-03-24T03:20:43.905Z,40.55
2019-03-24T03:22:48.042Z,39.85
2019-03-24T03:24:51.878Z,39.63
2019-03-24T03:26:56.079Z,41.23
2019-03-24T03:29:00.275Z,41.28
2019-03-24T03:31:04.107Z,37.90
2019-03-24T03:33:08.306Z,39.15
2019-03-24T03:35:12.194Z,39.73
2019-03-24T03:37:16.405Z,38.90
2019-03-24T03:39:20.619Z,34.45
2019-03-24T03:41:24.742Z,37.40
2019-03-24T03:43:28.556Z,38.55
2019-03-24T03:45:32.850Z,37.95
2019-03-24T03:47:36.980Z,36.60
2019-03-24T03:49:41.082Z,37.30
2019-03-24T03:51:45.285Z,38.00
2019-03-24T03:53:52.032Z,39.42
2019-03-24T03:55:56.188Z,43.70
2019-03-24T03:58:00.384Z,41.28
2019-03-24T04:00:09.398Z,45.58
2019-03-24T04:02:14.025Z,46.05
2019-03-24T04:04:18.138Z,44.18
2019-03-24T04:06:22.346Z,39.88
2019-03-24T04:08:26.198Z,39.25
2019-03-24T04:10:32.215Z,48.78
2019-03-24T04:12:38.359Z,42.38
2019-03-24T04:14:42.578Z,42.78
2019-03-24T04:16:46.425Z,43.45
2019-03-24T04:18:50.584Z,46.33
2019-03-24T04:20:54.722Z,45.00
2019-03-24T04:22:58.955Z,45.40
2019-03-24T04:25:03.134Z,43.52
2019-03-24T04:27:10.308Z,45.73
2019-03-24T04:29:14.426Z,49.67
2019-03-24T04:31:20.038Z,45.28
2019-03-24T04:33:24.784Z,40.92
2019-03-24T04:35:32.014Z,43.30
2019-03-24T04:37:35.794Z,43.25
2019-03-24T04:39:39.886Z,44.38
2019-03-24T04:41:44.110Z,50.70
2019-03-24T04:43:47.969Z,48.65
2019-03-24T04:45:52.309Z,46.53
2019-03-24T04:47:56.444Z,47.08
2019-03-24T04:50:02.612Z,46.53
2019-03-24T04:52:06.705Z,47.67
2019-03-24T04:54:10.915Z,47.95
2019-03-24T04:56:15.026Z,48.87
2019-03-24T04:58:18.896Z,50.00
2019-03-24T05:00:35.990Z,46.65
2019-03-24T05:02:40.148Z,52.67
2019-03-24T05:04:44.054Z,58.63
2019-03-24T05:06:48.670Z,52.23
2019-03-24T05:08:53.404Z,53.10
2019-03-24T05:10:57.536Z,48.35
2019-03-24T05:13:01.431Z,47.27
2019-03-24T05:15:06.665Z,48.40
2019-03-24T05:17:10.888Z,46.25
2019-03-24T05:19:14.754Z,48.68
2019-03-24T05:21:18.887Z,50.48
2019-03-24T05:23:23.580Z,50.98
2019-03-24T05:25:27.441Z,52.90
2019-03-24T05:27:31.629Z,52.88
2019-03-24T05:29:35.748Z,56.85
2019-03-24T05:31:39.948Z,65.00
2019-03-24T05:33:44.066Z,69.95
2019-03-24T05:35:48.267Z,51.08
2019-03-24T05:37:52.106Z,50.70
2019-03-24T05:39:56.104Z,68.40
2019-03-24T05:42:00.318Z,55.28
2019-03-24T05:44:04.274Z,52.33
2019-03-24T05:46:08.924Z,53.78
2019-03-24T05:48:13.142Z,58.35
2019-03-24T05:50:16.977Z,53.48
2019-03-24T05:52:20.858Z,57.20
2019-03-24T05:54:24.690Z,51.80
2019-03-24T05:56:28.870Z,50.73
2019-03-24T05:58:33.072Z,50.98
2019-03-24T06:00:37.182Z,48.90
2019-03-24T06:02:41.395Z,47.58
2019-03-24T06:04:46.789Z,50.20
2019-03-24T06:06:50.956Z,47.15
2019-03-24T06:08:55.179Z,48.63
2019-03-24T06:10:59.366Z,51.95
2019-03-24T06:13:03.182Z,55.78
2019-03-24T06:15:09.238Z,51.23
2019-03-24T06:17:13.359Z,49.67
2019-03-24T06:19:17.547Z,54.53
2019-03-24T06:21:21.762Z,54.40
2019-03-24T06:23:27.829Z,59.40
2019-03-24T06:25:34.847Z,51.85
2019-03-24T06:27:37.597Z,52.78
2019-03-24T06:29:41.790Z,53.40
2019-03-24T06:31:45.902Z,59.67
2019-03-24T06:33:49.932Z,59.07
2019-03-24T06:35:54.130Z,60.60
2019-03-24T06:37:58.340Z,53.90
2019-03-24T06:40:02.456Z,51.85
2019-03-24T06:42:06.666Z,54.83
2019-03-24T06:44:10.878Z,48.48
2019-03-24T06:46:15.147Z,48.83
2019-03-24T06:48:19.317Z,50.92
2019-03-24T06:50:23.507Z,51.83
2019-03-24T06:52:27.834Z,49.53
2019-03-24T06:54:32.059Z,48.40
2019-03-24T06:56:36.247Z,48.48
2019-03-24T06:58:40.109Z,46.42
2019-03-24T07:00:44.366Z,45.50
2019-03-24T07:02:48.483Z,47.55
2019-03-24T07:04:52.687Z,49.15
2019-03-24T07:06:56.574Z,48.48
2019-03-24T07:09:00.698Z,45.25
2019-03-24T07:11:10.497Z,46.77
2019-03-24T07:13:10.253Z,48.80
2019-03-24T07:15:15.187Z,48.87
2019-03-24T07:17:19.404Z,48.30
2019-03-24T07:19:23.613Z,45.52
2019-03-24T07:21:27.815Z,45.35
2019-03-24T07:23:31.670Z,45.15
2019-03-24T07:25:35.511Z,45.58
2019-03-24T07:27:39.650Z,48.55
2019-03-24T07:29:43.494Z,84.80
2019-03-24T07:31:48.124Z,48.60
2019-03-24T07:33:51.962Z,75.22
2019-03-24T07:35:55.817Z,49.50
2019-03-24T07:37:59.646Z,52.38
2019-03-24T07:40:05.023Z,44.88
2019-03-24T07:42:08.873Z,44.75
2019-03-24T07:44:12.723Z,45.12
2019-03-24T07:46:16.818Z,46.73
2019-03-24T07:48:20.663Z,46.02
2019-03-24T07:50:24.762Z,45.50
2019-03-24T07:52:28.887Z,43.92
2019-03-24T07:54:32.808Z,46.48
2019-03-24T07:56:36.979Z,44.00
2019-03-24T07:58:46.784Z,43.83
2019-03-24T08:00:46.673Z,43.35
2019-03-24T08:02:53.780Z,42.75
2019-03-24T08:04:57.919Z,42.33
2019-03-24T08:07:02.102Z,43.75
2019-03-24T08:09:07.274Z,43.92
2019-03-24T08:11:11.146Z,43.08
2019-03-24T08:13:14.969Z,42.73
2019-03-24T08:15:19.091Z,41.73
2019-03-24T08:17:23.313Z,48.68
2019-03-24T08:19:27.412Z,43.73
2019-03-24T08:21:31.627Z,40.67
2019-03-24T08:23:35.947Z,40.40
2019-03-24T08:25:40.162Z,42.80
2019-03-24T08:27:44.401Z,40.63
2019-03-24T08:29:48.579Z,42.35
2019-03-24T08:31:52.693Z,40.55
2019-03-24T08:33:56.947Z,40.85
2019-03-24T08:36:01.109Z,39.63
2019-03-24T08:38:05.853Z,42.55
2019-03-24T08:40:10.157Z,40.95
2019-03-24T08:42:14.030Z,41.13
2019-03-24T08:44:20.789Z,38.38
2019-03-24T08:46:24.937Z,38.88
2019-03-24T08:48:29.147Z,40.33
2019-03-24T08:50:33.276Z,40.90
2019-03-24T08:52:37.481Z,37.80
2019-03-24T08:54:41.586Z,38.85
2019-03-24T08:56:45.799Z,37.88
2019-03-24T08:58:49.629Z,38.77
2019-03-24T09:00:53.815Z,37.50
2019-03-24T09:02:58.023Z,40.60
2019-03-24T09:05:01.828Z,36.73
2019-03-24T09:07:05.523Z,37.60
2019-03-24T09:09:09.076Z,36.03
2019-03-24T09:11:12.941Z,34.57
2019-03-24T09:13:16.839Z,37.63
2019-03-24T09:15:21.249Z,34.93
2019-03-24T09:17:25.105Z,34.03
2019-03-24T09:19:28.960Z,34.73
2019-03-24T09:21:32.867Z,34.77
2019-03-24T09:23:36.781Z,35.77
2019-03-24T09:25:40.661Z,35.90
2019-03-24T09:27:44.485Z,35.63
2019-03-24T09:29:48.383Z,34.20
2019-03-24T09:31:52.299Z,34.33
2019-03-24T09:33:55.833Z,33.63
2019-03-24T09:35:59.384Z,34.57
2019-03-24T09:38:03.285Z,34.73
2019-03-24T09:40:09.558Z,32.50
2019-03-24T09:42:13.449Z,38.23
2019-03-24T09:44:17.283Z,36.50
2019-03-24T09:46:21.468Z,37.75
2019-03-24T09:48:25.382Z,36.77
2019-03-24T09:50:29.381Z,35.27
2019-03-24T09:52:33.299Z,35.20
2019-03-24T09:54:37.099Z,35.97
2019-03-24T09:56:41.011Z,34.80
2019-03-24T09:58:44.639Z,34.57
2019-03-24T10:00:48.185Z,36.37
2019-03-24T10:02:52.001Z,34.57
2019-03-24T10:04:55.923Z,34.97
2019-03-24T10:06:59.815Z,32.83
2019-03-24T10:09:05.255Z,34.50
2019-03-24T10:11:09.146Z,36.40
2019-03-24T10:13:13.060Z,35.60
2019-03-24T10:15:17.579Z,34.60
2019-03-24T10:17:21.395Z,36.13
2019-03-24T10:19:25.195Z,36.70
2019-03-24T10:21:28.717Z,35.80
2019-03-24T10:23:32.585Z,35.47
2019-03-24T10:25:37.507Z,35.40
2019-03-24T10:27:41.425Z,34.73
2019-03-24T10:29:45.335Z,34.73
2019-03-24T10:31:49.230Z,34.03
2019-03-24T10:33:53.039Z,32.80
2019-03-24T10:35:56.940Z,33.43
2019-03-24T10:38:00.745Z,34.23
2019-03-24T10:40:05.981Z,33.77
2019-03-24T10:42:09.518Z,34.40
2019-03-24T10:44:13.393Z,34.07
2019-03-24T10:46:16.950Z,33.10
2019-03-24T10:48:20.781Z,34.27
2019-03-24T10:50:26.399Z,33.50
2019-03-24T10:52:30.353Z,32.73
2019-03-24T10:54:35.471Z,34.30
2019-03-24T10:56:39.278Z,33.73
2019-03-24T10:58:42.831Z,32.73
2019-03-24T11:00:46.489Z,33.07
2019-03-24T11:02:50.369Z,34.33
2019-03-24T11:04:54.283Z,34.60
2019-03-24T11:06:58.192Z,33.80
2019-03-24T11:09:01.767Z,33.40
2019-03-24T11:11:05.595Z,32.20
2019-03-24T11:13:09.466Z,33.40
2019-03-24T11:15:13.611Z,34.10
2019-03-24T11:17:17.501Z,35.10
2019-03-24T11:19:21.414Z,33.70
2019-03-24T11:21:24.959Z,33.37
2019-03-24T11:23:30.671Z,33.10
2019-03-24T11:25:34.550Z,33.63
2019-03-24T11:27:38.675Z,32.10
2019-03-24T11:29:42.473Z,34.63
2019-03-24T11:31:48.339Z,32.70
2019-03-24T11:33:52.438Z,33.50
2019-03-24T11:35:55.969Z,33.47
2019-03-24T11:37:59.590Z,33.67
2019-03-24T11:40:03.740Z,35.43
2019-03-24T11:42:09.327Z,34.67
2019-03-24T11:44:12.888Z,33.97
2019-03-24T11:46:17.321Z,35.33
2019-03-24T11:48:21.199Z,37.27
2019-03-24T11:50:25.107Z,35.27
2019-03-24T11:52:28.918Z,34.87
2019-03-24T11:54:32.823Z,35.57
2019-03-24T11:56:36.736Z,37.07
2019-03-24T11:58:41.293Z,38.17
2019-03-24T12:00:45.463Z,38.40
2019-03-24T12:02:49.357Z,39.03
2019-03-24T12:04:53.281Z,37.93
2019-03-24T12:06:57.187Z,41.30
2019-03-24T12:09:00.994Z,39.90
2019-03-24T12:11:06.195Z,40.73
2019-03-24T12:13:10.119Z,39.43
2019-03-24T12:15:15.885Z,40.13
2019-03-24T12:17:19.435Z,39.27
2019-03-24T12:19:22.955Z,39.30
2019-03-24T12:21:26.495Z,39.07
2019-03-24T12:23:30.377Z,38.27
2019-03-24T12:25:36.010Z,40.60
2019-03-24T12:27:39.499Z,38.90
2019-03-24T12:29:43.413Z,40.57
2019-03-24T12:31:47.339Z,39.23
2019-03-24T12:33:50.890Z,38.60
2019-03-24T12:35:54.735Z,39.53
2019-03-24T12:37:58.622Z,37.30
2019-03-24T12:40:02.167Z,38.10
2019-03-24T12:42:06.019Z,37.60
2019-03-24T12:44:09.837Z,37.60
2019-03-24T12:46:13.759Z,36.73
2019-03-24T12:48:17.732Z,37.43
2019-03-24T12:50:30.886Z,36.00
2019-03-24T12:52:27.299Z,34.53
2019-03-24T12:54:31.195Z,35.30
2019-03-24T12:56:34.755Z,36.30
2019-03-24T12:58:38.592Z,36.33
2019-03-24T13:00:42.633Z,33.83
2019-03-24T13:02:48.484Z,36.17
2019-03-24T13:04:52.016Z,36.23
2019-03-24T13:06:55.543Z,34.53
2019-03-24T13:09:01.336Z,35.40
2019-03-24T13:11:04.883Z,35.37
2019-03-24T13:13:08.431Z,36.93
2019-03-24T13:15:12.713Z,35.63
2019-03-24T13:17:16.238Z,36.37
2019-03-24T13:19:20.108Z,36.90
2019-03-24T13:21:23.936Z,36.27
2019-03-24T13:23:27.836Z,33.10
2019-03-24T13:25:31.737Z,36.17
2019-03-24T13:27:35.625Z,35.47
2019-03-24T13:29:41.271Z,35.03
2019-03-24T13:31:44.883Z,35.37
2019-03-24T13:33:48.426Z,36.40
2019-03-24T13:35:53.615Z,37.20
2019-03-24T13:37:57.534Z,38.53
2019-03-24T13:40:01.443Z,36.90
2019-03-24T13:42:05.322Z,34.03
2019-03-24T13:44:09.114Z,31.03
2019-03-24T13:46:12.695Z,30.23
2019-03-24T13:48:16.535Z,29.17
2019-03-24T13:50:30.703Z,29.40
2019-03-24T13:52:25.967Z,25.90
2019-03-24T13:54:29.772Z,26.20
2019-03-24T13:56:33.676Z,25.53
2019-03-24T13:58:37.232Z,26.43
2019-03-24T14:00:41.199Z,27.23
2019-03-24T14:02:44.716Z,24.33
2019-03-24T14:04:48.583Z,25.17
2019-03-24T14:06:52.104Z,25.50
2019-03-24T14:08:55.624Z,25.40
2019-03-24T14:11:00.826Z,24.60
2019-03-24T14:13:04.718Z,25.87
2019-03-24T14:15:08.852Z,24.73
2019-03-24T14:17:13.982Z,27.00
2019-03-24T14:19:17.435Z,25.47
2019-03-24T14:21:20.958Z,26.53
2019-03-24T14:23:24.871Z,24.93
2019-03-24T14:25:28.768Z,25.47
2019-03-24T14:27:33.806Z,26.57
2019-03-24T14:29:37.700Z,29.23
2019-03-24T14:31:41.603Z,26.93
2019-03-24T14:33:45.504Z,26.23
2019-03-24T14:35:49.516Z,27.67
2019-03-24T14:37:53.438Z,24.93
2019-03-24T14:39:57.022Z,27.03
2019-03-24T14:42:00.828Z,25.70
2019-03-24T14:44:04.745Z,27.43
2019-03-24T14:46:08.312Z,25.57
2019-03-24T14:48:12.175Z,26.23
2019-03-24T14:50:16.240Z,27.83
2019-03-24T14:52:21.990Z,28.10
2019-03-24T14:54:25.796Z,26.33
2019-03-24T14:56:31.244Z,29.10
2019-03-24T14:58:35.152Z,28.90
2019-03-24T15:00:42.929Z,28.50
2019-03-24T15:02:46.490Z,27.87
2019-03-24T15:04:50.342Z,28.47
2019-03-24T15:06:54.248Z,28.23
2019-03-24T15:08:58.154Z,28.47
2019-03-24T15:11:02.063Z,25.07
2019-03-24T15:13:06.057Z,28.30
2019-03-24T15:15:09.965Z,26.80
2019-03-24T15:17:13.486Z,27.17
2019-03-24T15:19:17.114Z,27.33
2019-03-24T15:21:20.651Z,25.97
2019-03-24T15:23:24.570Z,27.53
2019-03-24T15:25:28.486Z,28.43
2019-03-24T15:27:32.378Z,27.73
2019-03-24T15:29:36.290Z,27.87
2019-03-24T15:31:40.214Z,27.50
2019-03-24T15:33:44.104Z,28.63
2019-03-24T15:35:47.632Z,29.97
2019-03-24T15:37:51.498Z,28.53
2019-03-24T15:39:55.039Z,27.80
2019-03-24T15:41:58.609Z,27.43
2019-03-24T15:44:02.174Z,29.87
2019-03-24T15:46:05.998Z,28.13
2019-03-24T15:48:10.328Z,29.07
2019-03-24T15:50:14.622Z,29.07
2019-03-24T15:52:18.423Z,27.47
2019-03-24T15:54:21.961Z,28.53
2019-03-24T15:56:26.030Z,26.50
2019-03-24T15:58:29.943Z,27.33
2019-03-24T16:00:45.690Z,26.97
2019-03-24T16:02:49.532Z,28.43
2019-03-24T16:04:53.050Z,28.53
2019-03-24T16:06:56.610Z,25.60
2019-03-24T16:09:00.487Z,26.33
2019-03-24T16:11:04.363Z,26.97
2019-03-24T16:13:08.251Z,24.07
2019-03-24T16:15:12.242Z,23.53
2019-03-24T16:17:16.141Z,21.97
2019-03-24T16:19:19.944Z,22.17
2019-03-24T16:21:28.429Z,20.17
2019-03-24T16:23:29.404Z,20.20
2019-03-24T16:25:32.922Z,18.97
2019-03-24T16:27:36.466Z,19.57
2019-03-24T16:29:40.304Z,19.37
2019-03-24T16:31:44.112Z,19.90
2019-03-24T16:33:47.674Z,18.07
2019-03-24T16:35:51.490Z,18.60
2019-03-24T16:37:55.018Z,19.23
2019-03-24T16:39:59.014Z,17.77
2019-03-24T16:42:02.907Z,17.10
2019-03-24T16:44:06.831Z,15.63
2019-03-24T16:46:10.744Z,16.13
2019-03-24T16:48:14.280Z,15.93
2019-03-24T16:50:18.147Z,13.33
2019-03-24T16:52:22.031Z,13.60
2019-03-24T16:54:25.561Z,12.33
2019-03-24T16:56:29.091Z,13.43
2019-03-24T16:58:32.916Z,14.00
2019-03-24T17:00:36.830Z,13.70
2019-03-24T17:02:41.111Z,14.10
2019-03-24T17:04:44.926Z,13.20
2019-03-24T17:06:48.737Z,13.27
2019-03-24T17:08:52.963Z,13.70
2019-03-24T17:10:56.906Z,11.97
2019-03-24T17:13:01.074Z,12.88
2019-03-24T17:15:06.840Z,13.40
2019-03-24T17:17:11.599Z,13.25
2019-03-24T17:19:15.449Z,12.63
2019-03-24T17:21:19.260Z,13.23
2019-03-24T17:23:23.472Z,14.25
2019-03-24T17:25:27.748Z,13.03
2019-03-24T17:27:31.885Z,13.32
2019-03-24T17:29:36.234Z,15.83
2019-03-24T17:31:40.422Z,15.93
2019-03-24T17:33:44.552Z,15.32
2019-03-24T17:35:48.847Z,17.15
2019-03-24T17:37:53.072Z,16.05
2019-03-24T17:39:59.227Z,15.20
2019-03-24T17:42:03.578Z,17.80
2019-03-24T17:44:07.839Z,17.62
2019-03-24T17:46:11.713Z,17.80
2019-03-24T17:48:15.873Z,18.87
2019-03-24T17:50:20.190Z,17.82
2019-03-24T17:52:24.323Z,19.12
2019-03-24T17:54:28.512Z,17.05
2019-03-24T17:56:32.726Z,17.77
2019-03-24T17:58:36.828Z,18.00
2019-03-24T18:00:46.859Z,18.42
2019-03-24T18:02:50.990Z,17.05
2019-03-24T18:04:55.710Z,18.27
2019-03-24T18:06:59.538Z,17.05
2019-03-24T18:09:05.393Z,18.30
2019-03-24T18:11:09.568Z,17.73
2019-03-24T18:13:14.204Z,15.95
2019-03-24T18:15:18.432Z,17.45
2019-03-24T18:17:22.620Z,17.12
2019-03-24T18:19:29.414Z,18.02
2019-03-24T18:21:33.626Z,17.45
2019-03-24T18:23:38.012Z,17.20
2019-03-24T18:25:41.882Z,16.77
2019-03-24T18:27:46.046Z,16.10
2019-03-24T18:29:50.151Z,16.52
2019-03-24T18:31:54.364Z,17.87
2019-03-24T18:33:58.483Z,16.95
2019-03-24T18:36:02.327Z,16.97
2019-03-24T18:38:06.432Z,17.62
2019-03-24T18:40:11.331Z,18.25
2019-03-24T18:42:15.741Z,18.02
2019-03-24T18:44:19.947Z,17.00
2019-03-24T18:46:24.048Z,19.70
2019-03-24T18:48:28.170Z,17.23
2019-03-24T18:50:32.391Z,19.02
2019-03-24T18:52:36.529Z,18.75
2019-03-24T18:54:40.701Z,20.72
2019-03-24T18:56:44.920Z,19.67
2019-03-24T18:58:49.029Z,19.62
2019-03-24T19:00:53.240Z,20.35
2019-03-24T19:02:57.339Z,20.85
2019-03-24T19:05:01.468Z,17.73
2019-03-24T19:07:05.703Z,19.05
2019-03-24T19:09:10.092Z,17.67
2019-03-24T19:11:14.210Z,17.77
2019-03-24T19:13:18.321Z,18.75
2019-03-24T19:15:22.731Z,18.95
2019-03-24T19:17:26.943Z,18.40
2019-03-24T19:19:31.170Z,19.60
2019-03-24T19:21:35.365Z,18.07
2019-03-24T19:23:39.586Z,18.62
2019-03-24T19:25:43.729Z,19.00
2019-03-24T19:27:47.901Z,20.05
2019-03-24T19:29:51.779Z,18.75
2019-03-24T19:31:56.221Z,20.05
2019-03-24T19:34:00.436Z,22.13
2019-03-24T19:36:04.657Z,20.97
2019-03-24T19:38:08.473Z,20.85
2019-03-24T19:40:31.825Z,23.30
2019-03-24T19:42:36.046Z,23.02
2019-03-24T19:44:40.142Z,23.20
2019-03-24T19:46:44.346Z,22.62
2019-03-24T19:48:48.463Z,25.30
2019-03-24T19:50:52.523Z,25.60
2019-03-24T19:52:56.692Z,26.68
2019-03-24T19:55:00.792Z,27.10
2019-03-24T19:57:04.999Z,28.10
2019-03-24T19:59:09.123Z,25.60
2019-03-24T20:01:13.316Z,27.77
2019-03-24T20:03:17.528Z,26.57
2019-03-24T20:05:23.156Z,28.85
2019-03-24T20:07:27.295Z,27.15
2019-03-24T20:09:32.012Z,27.82
2019-03-24T20:11:36.225Z,28.32
2019-03-24T20:13:40.443Z,27.60
2019-03-24T20:15:44.551Z,27.65
2019-03-24T20:17:48.660Z,27.58
2019-03-24T20:19:52.890Z,26.10
2019-03-24T20:21:57.086Z,24.98
2019-03-24T20:24:01.190Z,26.12
2019-03-24T20:26:05.399Z,25.48
2019-03-24T20:28:10.025Z,24.47
2019-03-24T20:30:14.445Z,24.07
2019-03-24T20:32:18.687Z,24.82
2019-03-24T20:34:22.873Z,22.65
2019-03-24T20:36:26.729Z,22.02
2019-03-24T20:38:30.897Z,20.60
2019-03-24T20:40:34.995Z,21.00
2019-03-24T20:42:39.231Z,20.85
2019-03-24T20:44:43.328Z,20.57
2019-03-24T20:46:49.129Z,21.50
2019-03-24T20:48:53.301Z,20.25
2019-03-24T20:50:57.393Z,22.05
2019-03-24T20:53:08.727Z,21.48
2019-03-24T20:55:08.476Z,21.37
2019-03-24T20:57:12.555Z,21.02
2019-03-24T20:59:16.693Z,20.62
2019-03-24T21:01:20.812Z,21.02
2019-03-24T21:03:24.663Z,19.40
2019-03-24T21:05:32.891Z,20.08
2019-03-24T21:07:36.241Z,17.70
2019-03-24T21:09:40.637Z,16.75
2019-03-24T21:11:44.746Z,16.65
2019-03-24T21:13:48.555Z,15.03
2019-03-24T21:15:52.749Z,13.28
2019-03-24T21:17:56.967Z,14.28
2019-03-24T21:20:00.793Z,11.48
2019-03-24T21:22:04.971Z,10.70
2019-03-24T21:24:09.117Z,9.90
2019-03-24T21:26:12.955Z,9.58
2019-03-24T21:28:17.118Z,9.20
2019-03-24T21:30:23.990Z,10.10
2019-03-24T21:32:28.199Z,9.45
2019-03-24T21:34:33.330Z,8.73
2019-03-24T21:36:39.088Z,8.88
2019-03-24T21:38:43.197Z,7.33
2019-03-24T21:40:47.024Z,7.80
2019-03-24T21:42:51.197Z,8.20
2019-03-24T21:44:55.333Z,8.53
2019-03-24T21:46:59.425Z,8.53
2019-03-24T21:49:03.526Z,8.95
2019-03-24T21:51:09.086Z,9.00
2019-03-24T21:53:14.828Z,9.05
2019-03-24T21:55:19.043Z,9.60
2019-03-24T21:57:22.863Z,9.70
2019-03-24T21:59:27.063Z,10.10
2019-03-24T22:01:33.125Z,10.32
2019-03-24T22:03:36.941Z,9.20
2019-03-24T22:05:40.781Z,9.90
2019-03-24T22:07:44.595Z,8.70
2019-03-24T22:09:48.720Z,9.58
2019-03-24T22:11:52.936Z,9.35
2019-03-24T22:13:57.360Z,8.65
2019-03-24T22:16:03.112Z,8.50
2019-03-24T22:18:08.561Z,9.03
2019-03-24T22:20:13.088Z,9.10
2019-03-24T22:22:17.289Z,9.58
2019-03-24T22:24:21.384Z,9.90
2019-03-24T22:26:25.512Z,9.15
2019-03-24T22:28:29.343Z,9.38
2019-03-24T22:30:33.161Z,8.18
2019-03-24T22:32:37.316Z,8.63
2019-03-24T22:34:41.142Z,7.42
2019-03-24T22:36:47.199Z,6.97
2019-03-24T22:38:51.397Z,5.90
2019-03-24T22:40:55.213Z,5.95
2019-03-24T22:43:10.159Z,7.62
2019-03-24T22:45:17.984Z,6.00
2019-03-24T22:47:22.167Z,5.47
2019-03-24T22:49:28.627Z,5.75
2019-03-24T22:51:32.750Z,6.08
2019-03-24T22:53:38.392Z,6.00
2019-03-24T22:55:42.608Z,5.92
2019-03-24T22:57:48.967Z,6.75
2019-03-24T22:59:53.082Z,6.12
2019-03-24T23:01:57.292Z,6.45
2019-03-24T23:04:01.479Z,6.62
2019-03-24T23:06:06.031Z,5.87
2019-03-24T23:08:10.129Z,5.92
2019-03-24T23:10:14.439Z,6.67
2019-03-24T23:12:18.278Z,6.33
2019-03-24T23:14:22.460Z,6.12
2019-03-24T23:16:26.568Z,6.62
2019-03-24T23:18:30.780Z,6.28
2019-03-24T23:20:36.523Z,6.45
2019-03-24T23:22:40.636Z,6.53
2019-03-24T23:24:46.498Z,5.72
2019-03-24T23:26:50.311Z,6.42
2019-03-24T23:28:54.523Z,6.75
2019-03-24T23:30:58.723Z,6.97
2019-03-24T23:33:05.897Z,6.60
2019-03-24T23:35:10.323Z,7.62
2019-03-24T23:37:15.550Z,6.15
2019-03-24T23:39:19.668Z,7.40
2019-03-24T23:41:23.500Z,7.40
2019-03-24T23:43:27.802Z,7.90
2019-03-24T23:45:31.616Z,7.17
2019-03-24T23:47:35.697Z,7.70
2019-03-24T23:49:39.529Z,8.45
2019-03-24T23:51:43.711Z,8.63
2019-03-24T23:53:47.935Z,8.80
2019-03-24T23:55:51.820Z,8.45
2019-03-24T23:57:55.952Z,7.87
